createdAt,value
2023-05-19T00:01:49.377Z,28.30
2023-05-19T00:04:18.802Z,28.40
2023-05-19T00:06:52.500Z,28.40
2023-05-19T00:09:22.117Z,28.50
2023-05-19T00:11:51.462Z,28.50
2023-05-19T00:14:20.769Z,28.60
2023-05-19T00:16:50.150Z,28.60
2023-05-19T00:19:20.732Z,28.70
2023-05-19T00:21:50.056Z,28.70
2023-05-19T00:24:19.106Z,28.80
2023-05-19T00:27:08.847Z,28.90
2023-05-19T00:29:37.914Z,29.00
2023-05-19T00:32:07.434Z,29.10
2023-05-19T00:34:36.496Z,29.20
2023-05-19T00:37:05.622Z,29.20
2023-05-19T00:39:34.682Z,29.30
2023-05-19T00:42:04.098Z,29.40
2023-05-19T00:44:33.403Z,29.50
2023-05-19T00:47:02.800Z,29.60
2023-05-19T00:49:32.027Z,29.70
2023-05-19T00:52:03.089Z,29.80
2023-05-19T00:54:32.482Z,29.90
2023-05-19T00:57:02.332Z,29.90
2023-05-19T00:59:31.467Z,30.00
2023-05-19T01:02:00.492Z,30.10
2023-05-19T01:04:30.926Z,30.20
2023-05-19T01:07:00.181Z,30.30
2023-05-19T01:09:29.292Z,30.30
2023-05-19T01:11:58.380Z,30.50
2023-05-19T01:14:27.774Z,30.60
2023-05-19T01:17:43.644Z,30.70
2023-05-19T01:20:30.891Z,30.80
2023-05-19T01:23:37.789Z,30.90
2023-05-19T01:26:28.600Z,31.00
2023-05-19T01:29:34.465Z,31.20
2023-05-19T01:32:08.351Z,31.30
2023-05-19T01:34:45.271Z,31.40
2023-05-19T01:37:16.556Z,31.50
2023-05-19T01:39:46.938Z,31.60
2023-05-19T01:42:16.814Z,31.70
2023-05-19T01:44:46.812Z,31.80
2023-05-19T01:47:16.788Z,31.90
2023-05-19T01:49:45.862Z,32.00
2023-05-19T01:52:14.886Z,32.10
2023-05-19T01:54:43.977Z,32.30
2023-05-19T01:57:34.564Z,32.40
2023-05-19T02:00:19.373Z,32.50
2023-05-19T02:03:16.297Z,32.60
2023-05-19T02:05:58.419Z,32.80
2023-05-19T02:08:43.962Z,32.80
2023-05-19T02:11:39.133Z,32.90
2023-05-19T02:14:37.121Z,33.00
2023-05-19T02:17:07.324Z,33.10
2023-05-19T02:19:41.683Z,33.20
2023-05-19T02:22:10.755Z,33.30
2023-05-19T02:24:40.646Z,33.40
2023-05-19T02:27:12.230Z,33.50
2023-05-19T02:29:44.075Z,33.60
2023-05-19T02:32:13.636Z,33.70
2023-05-19T02:34:46.685Z,33.80
2023-05-19T02:37:18.941Z,33.90
2023-05-19T02:39:47.990Z,34.00
2023-05-19T02:42:19.505Z,34.10
2023-05-19T02:44:48.873Z,34.30
2023-05-19T02:47:17.980Z,34.40
2023-05-19T02:49:47.260Z,34.50
2023-05-19T02:52:16.306Z,34.60
2023-05-19T02:54:45.415Z,34.70
2023-05-19T02:57:14.465Z,34.80
2023-05-19T02:59:44.066Z,35.00
2023-05-19T03:02:13.161Z,35.20
2023-05-19T03:04:45.061Z,35.20
2023-05-19T03:07:17.603Z,35.40
2023-05-19T03:09:46.690Z,35.50
2023-05-19T03:12:15.695Z,35.50
2023-05-19T03:14:45.490Z,35.60
2023-05-19T03:17:14.728Z,35.70
2023-05-19T03:19:43.868Z,35.80
2023-05-19T03:22:12.936Z,35.90
2023-05-19T03:24:41.974Z,36.00
2023-05-19T03:27:10.961Z,36.20
2023-05-19T03:29:40.018Z,36.40
2023-05-19T03:32:09.320Z,36.50
2023-05-19T03:34:38.385Z,36.70
2023-05-19T03:37:07.517Z,36.80
2023-05-19T03:39:36.580Z,36.90
2023-05-19T03:42:05.705Z,36.90
2023-05-19T03:44:34.708Z,37.00
2023-05-19T03:47:03.723Z,37.10
2023-05-19T03:49:32.759Z,37.20
2023-05-19T03:52:04.477Z,37.30
2023-05-19T03:54:33.513Z,37.50
2023-05-19T03:57:03.369Z,37.60
2023-05-19T03:59:32.712Z,37.70
2023-05-19T04:02:01.806Z,37.70
2023-05-19T04:04:31.375Z,37.70
2023-05-19T04:07:00.451Z,37.80
2023-05-19T04:09:29.720Z,37.80
2023-05-19T04:11:58.782Z,37.80
2023-05-19T04:14:27.970Z,37.90
2023-05-19T04:16:57.277Z,38.00
2023-05-19T04:19:26.398Z,38.10
2023-05-19T04:21:55.456Z,38.10
2023-05-19T04:24:24.493Z,38.20
2023-05-19T04:26:54.894Z,38.20
2023-05-19T04:29:25.414Z,38.30
2023-05-19T04:31:54.469Z,38.30
2023-05-19T04:34:26.343Z,38.20
2023-05-19T04:36:56.694Z,38.30
2023-05-19T04:39:26.116Z,38.40
2023-05-19T04:41:58.170Z,38.50
2023-05-19T04:44:32.061Z,38.50
2023-05-19T04:47:01.311Z,38.60
2023-05-19T04:49:30.406Z,38.70
2023-05-19T04:51:59.588Z,38.70
2023-05-19T04:54:28.824Z,38.90
2023-05-19T04:56:57.890Z,39.00
2023-05-19T04:59:27.039Z,39.20
2023-05-19T05:01:57.354Z,39.20
2023-05-19T05:04:27.248Z,39.10
2023-05-19T05:06:56.400Z,39.00
2023-05-19T05:09:25.412Z,38.80
2023-05-19T05:11:54.785Z,38.80
2023-05-19T05:14:24.340Z,38.80
2023-05-19T05:16:53.862Z,38.90
2023-05-19T05:19:23.456Z,39.00
2023-05-19T05:21:52.832Z,39.00
2023-05-19T05:24:22.335Z,39.00
2023-05-19T05:26:54.783Z,39.10
2023-05-19T05:29:23.850Z,39.20
2023-05-19T05:31:53.061Z,39.30
2023-05-19T05:34:22.388Z,39.40
2023-05-19T05:36:51.415Z,39.50
2023-05-19T05:39:20.501Z,39.60
2023-05-19T05:41:49.600Z,39.70
2023-05-19T05:44:18.620Z,39.90
2023-05-19T05:46:48.051Z,40.00
2023-05-19T05:49:17.379Z,40.20
2023-05-19T05:51:57.954Z,40.30
2023-05-19T05:54:34.160Z,40.30
2023-05-19T05:57:03.832Z,40.30
2023-05-19T05:59:34.994Z,40.40
2023-05-19T06:02:04.161Z,40.40
2023-05-19T06:04:33.475Z,40.40
2023-05-19T06:07:03.074Z,40.40
2023-05-19T06:09:32.242Z,40.50
2023-05-19T06:12:01.589Z,40.50
2023-05-19T06:14:30.607Z,40.50
2023-05-19T06:16:59.680Z,40.40
2023-05-19T06:19:28.790Z,40.40
2023-05-19T06:21:57.870Z,40.30
2023-05-19T06:24:27.124Z,40.30
2023-05-19T06:26:56.313Z,40.30
2023-05-19T06:29:25.359Z,40.20
2023-05-19T06:31:54.529Z,40.30
2023-05-19T06:34:23.705Z,40.30
2023-05-19T06:36:52.783Z,40.40
2023-05-19T06:39:21.829Z,40.50
2023-05-19T06:41:50.933Z,40.60
2023-05-19T06:44:21.172Z,40.60
2023-05-19T06:46:50.526Z,40.70
2023-05-19T06:49:21.936Z,40.70
2023-05-19T06:51:51.026Z,40.60
2023-05-19T06:54:20.118Z,40.50
2023-05-19T06:56:49.149Z,40.30
2023-05-19T06:59:18.353Z,40.10
2023-05-19T07:01:47.368Z,40.00
2023-05-19T07:04:16.656Z,39.80
2023-05-19T07:06:45.803Z,39.70
2023-05-19T07:09:15.181Z,39.70
2023-05-19T07:11:44.691Z,39.70
2023-05-19T07:14:13.846Z,39.80
2023-05-19T07:16:43.022Z,40.00
2023-05-19T07:19:12.278Z,40.00
2023-05-19T07:21:41.322Z,40.10
2023-05-19T07:24:10.419Z,40.00
2023-05-19T07:26:39.490Z,40.10
2023-05-19T07:29:08.542Z,40.00
2023-05-19T07:31:37.627Z,40.10
2023-05-19T07:34:09.840Z,40.10
2023-05-19T07:36:39.266Z,40.10
2023-05-19T07:39:08.400Z,40.10
2023-05-19T07:41:37.380Z,40.20
2023-05-19T07:44:08.840Z,40.30
2023-05-19T07:46:38.912Z,40.30
2023-05-19T07:49:07.967Z,40.30
2023-05-19T07:51:37.014Z,40.30
2023-05-19T07:54:06.287Z,40.30
2023-05-19T07:56:35.345Z,40.30
2023-05-19T07:59:05.233Z,40.20
2023-05-19T08:01:34.703Z,40.20
2023-05-19T08:04:04.747Z,40.10
2023-05-19T08:06:33.849Z,40.10
2023-05-19T08:09:03.195Z,40.10
2023-05-19T08:11:32.451Z,40.00
2023-05-19T08:14:01.604Z,40.00
2023-05-19T08:16:30.676Z,40.00
2023-05-19T08:19:03.317Z,40.00
2023-05-19T08:21:35.680Z,39.90
2023-05-19T08:24:07.128Z,39.80
2023-05-19T08:26:37.815Z,39.80
2023-05-19T08:29:11.575Z,39.80
2023-05-19T08:31:40.616Z,39.80
2023-05-19T08:34:09.711Z,39.70
2023-05-19T08:36:39.159Z,39.60
2023-05-19T08:39:08.240Z,39.50
2023-05-19T08:41:37.326Z,39.40
2023-05-19T08:44:07.175Z,39.30
2023-05-19T08:46:36.702Z,39.30
2023-05-19T08:49:13.355Z,39.20
2023-05-19T08:51:57.312Z,39.30
2023-05-19T08:54:31.518Z,39.10
2023-05-19T08:57:00.712Z,39.10
2023-05-19T08:59:30.524Z,39.00
2023-05-19T09:01:59.715Z,38.90
2023-05-19T09:04:30.121Z,38.80
2023-05-19T09:07:03.844Z,38.60
2023-05-19T09:09:33.071Z,38.60
2023-05-19T09:12:02.106Z,38.60
2023-05-19T09:14:32.032Z,38.60
2023-05-19T09:17:01.085Z,38.60
2023-05-19T09:19:33.368Z,38.60
2023-05-19T09:22:05.857Z,38.60
2023-05-19T09:24:36.252Z,38.60
2023-05-19T09:27:05.457Z,38.60
2023-05-19T09:29:34.553Z,38.60
2023-05-19T09:32:06.469Z,38.50
2023-05-19T09:34:35.553Z,38.40
2023-05-19T09:37:04.910Z,38.40
2023-05-19T09:39:34.478Z,38.30
2023-05-19T09:42:06.845Z,38.30
2023-05-19T09:44:37.542Z,38.30
2023-05-19T09:47:06.769Z,38.30
2023-05-19T09:49:35.773Z,38.30
2023-05-19T09:52:05.483Z,38.30
2023-05-19T09:54:36.362Z,38.30
2023-05-19T09:57:08.953Z,38.30
2023-05-19T09:59:40.270Z,38.20
2023-05-19T10:02:18.371Z,38.20
2023-05-19T10:04:49.724Z,38.10
2023-05-19T10:07:20.804Z,38.10
2023-05-19T10:09:51.862Z,38.00
2023-05-19T10:12:21.888Z,37.90
2023-05-19T10:14:54.246Z,37.90
2023-05-19T10:17:23.794Z,37.80
2023-05-19T10:19:53.998Z,37.80
2023-05-19T10:22:23.504Z,37.70
2023-05-19T10:24:52.642Z,37.70
2023-05-19T10:27:22.286Z,37.60
2023-05-19T10:29:53.281Z,37.60
2023-05-19T10:32:26.356Z,37.50
2023-05-19T10:35:04.122Z,37.50
2023-05-19T10:37:57.718Z,37.40
2023-05-19T10:40:34.661Z,37.40
2023-05-19T10:43:40.717Z,37.30
2023-05-19T10:46:09.869Z,37.30
2023-05-19T10:48:38.886Z,37.20
2023-05-19T10:51:13.364Z,37.20
2023-05-19T10:53:48.438Z,37.10
2023-05-19T10:56:35.881Z,37.10
2023-05-19T10:59:05.924Z,37.00
2023-05-19T11:01:36.734Z,36.90
2023-05-19T11:04:15.014Z,36.90
2023-05-19T11:06:53.495Z,36.80
2023-05-19T11:09:37.840Z,36.80
2023-05-19T11:12:11.830Z,36.80
2023-05-19T11:14:42.331Z,36.70
2023-05-19T11:17:16.669Z,36.60
2023-05-19T11:19:57.046Z,36.50
2023-05-19T11:22:29.091Z,36.50
2023-05-19T11:24:59.051Z,36.40
2023-05-19T11:27:33.864Z,36.30
2023-05-19T11:30:21.129Z,36.20
2023-05-19T11:32:50.968Z,36.20
2023-05-19T11:35:22.620Z,36.10
2023-05-19T11:37:53.559Z,36.00
2023-05-19T11:40:24.751Z,36.00
2023-05-19T11:42:53.782Z,35.90
2023-05-19T11:45:30.782Z,35.90
2023-05-19T11:48:03.133Z,35.90
2023-05-19T11:50:33.941Z,35.80
2023-05-19T11:53:03.451Z,35.70
2023-05-19T11:55:32.770Z,35.70
2023-05-19T11:58:04.987Z,35.60
2023-05-19T12:00:42.014Z,35.60
2023-05-19T12:03:11.587Z,35.50
2023-05-19T12:05:47.277Z,35.50
2023-05-19T12:08:22.752Z,35.40
2023-05-19T12:10:52.183Z,35.40
2023-05-19T12:13:22.253Z,35.30
2023-05-19T12:15:54.480Z,35.30
2023-05-19T12:18:23.616Z,35.20
2023-05-19T12:20:52.788Z,35.20
2023-05-19T12:23:22.012Z,35.20
2023-05-19T12:25:51.914Z,35.20
2023-05-19T12:28:22.339Z,35.10
2023-05-19T12:30:54.980Z,35.10
2023-05-19T12:33:25.632Z,35.00
2023-05-19T12:35:56.496Z,35.10
2023-05-19T12:38:25.721Z,34.90
2023-05-19T12:40:54.777Z,34.90
2023-05-19T12:43:24.831Z,34.90
2023-05-19T12:45:54.556Z,34.90
2023-05-19T12:48:26.918Z,34.80
2023-05-19T12:50:56.713Z,34.80
2023-05-19T12:53:29.714Z,34.70
2023-05-19T12:55:58.815Z,34.70
2023-05-19T12:58:27.957Z,34.70
2023-05-19T13:01:01.624Z,34.60
2023-05-19T13:03:30.871Z,34.60
2023-05-19T13:06:01.031Z,34.60
2023-05-19T13:08:31.027Z,34.50
2023-05-19T13:11:00.044Z,34.50
2023-05-19T13:13:29.157Z,34.40
2023-05-19T13:15:58.234Z,34.40
2023-05-19T13:18:28.830Z,34.30
2023-05-19T13:20:57.845Z,34.30
2023-05-19T13:23:27.509Z,34.30
2023-05-19T13:25:56.513Z,34.30
2023-05-19T13:28:25.503Z,34.20
2023-05-19T13:30:54.650Z,34.20
2023-05-19T13:33:23.798Z,34.20
2023-05-19T13:35:52.846Z,34.20
2023-05-19T13:38:21.837Z,34.20
2023-05-19T13:40:50.893Z,34.10
2023-05-19T13:43:19.974Z,34.10
2023-05-19T13:45:49.181Z,34.10
2023-05-19T13:48:18.253Z,34.10
2023-05-19T13:50:47.326Z,34.10
2023-05-19T13:53:16.395Z,34.10
2023-05-19T13:55:45.430Z,34.10
2023-05-19T13:58:15.958Z,34.10
2023-05-19T14:00:44.978Z,34.10
2023-05-19T14:03:14.617Z,34.00
2023-05-19T14:05:43.716Z,34.00
2023-05-19T14:08:13.501Z,33.90
2023-05-19T14:10:43.400Z,33.90
2023-05-19T14:13:31.026Z,33.90
2023-05-19T14:16:03.051Z,33.80
2023-05-19T14:18:33.644Z,33.80
2023-05-19T14:21:02.772Z,33.80
2023-05-19T14:23:32.188Z,33.70
2023-05-19T14:26:01.233Z,33.70
2023-05-19T14:28:30.429Z,33.60
2023-05-19T14:30:59.630Z,33.60
2023-05-19T14:33:29.748Z,33.60
2023-05-19T14:36:01.792Z,33.50
2023-05-19T14:38:30.905Z,33.40
2023-05-19T14:41:00.002Z,33.40
2023-05-19T14:43:29.038Z,33.30
2023-05-19T14:45:58.789Z,33.30
2023-05-19T14:48:27.876Z,33.20
2023-05-19T14:50:57.079Z,33.20
2023-05-19T14:53:26.136Z,33.10
2023-05-19T14:55:55.170Z,33.00
2023-05-19T14:58:28.722Z,33.00
2023-05-19T15:01:01.220Z,33.00
2023-05-19T15:03:30.316Z,33.00
2023-05-19T15:05:59.366Z,32.90
2023-05-19T15:08:28.418Z,32.80
2023-05-19T15:10:57.491Z,32.80
2023-05-19T15:13:27.484Z,32.80
2023-05-19T15:16:12.422Z,32.80
2023-05-19T15:18:45.186Z,32.70
2023-05-19T15:21:14.576Z,32.70
2023-05-19T15:23:43.562Z,32.60
2023-05-19T15:26:12.699Z,32.60
2023-05-19T15:28:42.089Z,32.60
2023-05-19T15:31:11.155Z,32.50
2023-05-19T15:33:40.252Z,32.50
2023-05-19T15:36:09.245Z,32.50
2023-05-19T15:38:38.476Z,32.40
2023-05-19T15:41:09.383Z,32.40
2023-05-19T15:43:38.548Z,32.30
2023-05-19T15:46:07.752Z,32.30
2023-05-19T15:48:36.964Z,32.20
2023-05-19T15:51:06.227Z,32.20
2023-05-19T15:53:35.244Z,32.10
2023-05-19T15:56:04.981Z,32.10
2023-05-19T15:58:33.961Z,32.10
2023-05-19T16:01:03.351Z,32.10
2023-05-19T16:03:32.752Z,32.00
2023-05-19T16:06:02.319Z,32.00
2023-05-19T16:08:31.493Z,31.90
2023-05-19T16:11:00.579Z,31.90
2023-05-19T16:13:31.596Z,31.80
2023-05-19T16:16:00.899Z,31.80
2023-05-19T16:18:33.152Z,31.80
2023-05-19T16:21:02.214Z,31.80
2023-05-19T16:23:31.342Z,31.70
2023-05-19T16:26:00.369Z,31.70
2023-05-19T16:28:29.896Z,31.60
2023-05-19T16:31:02.434Z,31.60
2023-05-19T16:33:31.801Z,31.60
2023-05-19T16:36:01.186Z,31.60
2023-05-19T16:38:30.242Z,31.50
2023-05-19T16:40:59.282Z,31.50
2023-05-19T16:43:28.243Z,31.50
2023-05-19T16:45:58.286Z,31.50
2023-05-19T16:48:27.489Z,31.40
2023-05-19T16:50:56.540Z,31.40
2023-05-19T16:53:25.590Z,31.40
2023-05-19T16:55:54.671Z,31.40
2023-05-19T16:58:23.768Z,31.30
2023-05-19T17:00:56.014Z,31.30
2023-05-19T17:03:25.264Z,31.30
2023-05-19T17:05:54.450Z,31.30
2023-05-19T17:08:23.448Z,31.20
2023-05-19T17:10:52.657Z,31.20
2023-05-19T17:13:21.832Z,31.20
2023-05-19T17:15:53.910Z,31.10
2023-05-19T17:18:22.930Z,31.10
2023-05-19T17:20:52.202Z,31.10
2023-05-19T17:23:21.264Z,31.10
2023-05-19T17:25:50.261Z,31.10
2023-05-19T17:28:19.301Z,31.00
2023-05-19T17:30:48.377Z,31.00
2023-05-19T17:33:17.546Z,31.00
2023-05-19T17:35:46.703Z,31.00
2023-05-19T17:38:15.666Z,31.00
2023-05-19T17:40:44.694Z,31.00
2023-05-19T17:43:13.912Z,31.00
2023-05-19T17:45:42.981Z,31.00
2023-05-19T17:48:12.683Z,31.00
2023-05-19T17:50:41.702Z,31.00
2023-05-19T17:53:10.923Z,30.90
2023-05-19T17:55:40.244Z,30.90
2023-05-19T17:58:09.804Z,30.80
2023-05-19T18:00:39.079Z,30.80
2023-05-19T18:03:08.603Z,30.80
2023-05-19T18:05:38.975Z,30.70
2023-05-19T18:08:11.991Z,30.80
2023-05-19T18:10:43.163Z,30.70
2023-05-19T18:13:15.401Z,30.70
2023-05-19T18:15:44.761Z,30.70
2023-05-19T18:18:14.248Z,30.60
2023-05-19T18:20:45.988Z,30.60
2023-05-19T18:23:15.123Z,30.60
2023-05-19T18:25:51.805Z,30.60
2023-05-19T18:28:20.840Z,30.50
2023-05-19T18:30:49.824Z,30.50
2023-05-19T18:33:18.803Z,30.50
2023-05-19T18:35:48.521Z,30.50
2023-05-19T18:38:17.696Z,30.40
2023-05-19T18:40:46.815Z,30.40
2023-05-19T18:43:15.797Z,30.40
2023-05-19T18:45:44.825Z,30.40
2023-05-19T18:48:14.091Z,30.40
2023-05-19T18:50:45.314Z,30.40
2023-05-19T18:53:14.341Z,30.30
2023-05-19T18:55:43.444Z,30.30
2023-05-19T18:58:12.882Z,30.30
2023-05-19T19:00:41.952Z,30.30
2023-05-19T19:03:13.018Z,30.20
2023-05-19T19:05:42.141Z,30.20
2023-05-19T19:08:11.209Z,30.20
2023-05-19T19:10:41.816Z,30.20
2023-05-19T19:13:10.913Z,30.20
2023-05-19T19:15:40.933Z,30.20
2023-05-19T19:18:10.175Z,30.10
2023-05-19T19:20:39.314Z,30.20
2023-05-19T19:23:08.588Z,30.20
2023-05-19T19:25:37.834Z,30.10
2023-05-19T19:28:07.201Z,30.10
2023-05-19T19:30:36.502Z,30.10
2023-05-19T19:33:06.772Z,30.10
2023-05-19T19:35:36.215Z,30.00
2023-05-19T19:38:05.335Z,30.00
2023-05-19T19:40:34.701Z,30.00
2023-05-19T19:43:04.014Z,30.00
2023-05-19T19:45:33.433Z,29.90
2023-05-19T19:48:02.888Z,29.90
2023-05-19T19:50:32.614Z,29.90
2023-05-19T19:53:02.315Z,29.90
2023-05-19T19:55:34.597Z,29.90
2023-05-19T19:58:03.636Z,29.80
2023-05-19T20:00:32.804Z,29.80
2023-05-19T20:03:05.430Z,29.80
2023-05-19T20:05:35.007Z,29.80
2023-05-19T20:08:04.051Z,29.70
2023-05-19T20:10:33.399Z,29.70
2023-05-19T20:13:02.594Z,29.70
2023-05-19T20:15:31.708Z,29.60
2023-05-19T20:18:04.753Z,29.70
2023-05-19T20:20:34.170Z,29.60
2023-05-19T20:23:03.372Z,29.60
2023-05-19T20:25:32.908Z,29.60
2023-05-19T20:28:03.270Z,29.60
2023-05-19T20:30:32.458Z,29.60
2023-05-19T20:33:01.833Z,29.60
2023-05-19T20:35:31.082Z,29.60
2023-05-19T20:38:00.177Z,29.60
2023-05-19T20:40:29.300Z,29.50
2023-05-19T20:42:58.436Z,29.50
2023-05-19T20:45:27.523Z,29.50
2023-05-19T20:47:56.819Z,29.40
2023-05-19T20:50:25.956Z,29.50
2023-05-19T20:52:54.947Z,29.40
2023-05-19T20:55:24.387Z,29.40
2023-05-19T20:57:53.523Z,29.30
2023-05-19T21:00:22.767Z,29.30
2023-05-19T21:02:51.835Z,29.30
2023-05-19T21:05:20.998Z,29.30
2023-05-19T21:07:50.040Z,29.30
2023-05-19T21:10:19.176Z,29.20
2023-05-19T21:12:48.431Z,29.30
2023-05-19T21:15:17.624Z,29.20
2023-05-19T21:17:47.190Z,29.20
2023-05-19T21:20:16.265Z,29.20
2023-05-19T21:22:45.321Z,29.10
2023-05-19T21:25:14.512Z,29.10
2023-05-19T21:27:43.571Z,29.10
2023-05-19T21:30:13.113Z,29.10
2023-05-19T21:32:42.481Z,29.10
2023-05-19T21:35:11.703Z,29.00
2023-05-19T21:37:40.704Z,29.00
2023-05-19T21:40:10.936Z,29.00
2023-05-19T21:42:39.968Z,29.00
2023-05-19T21:45:09.499Z,29.00
2023-05-19T21:47:38.503Z,29.00
2023-05-19T21:50:08.139Z,28.90
2023-05-19T21:52:37.738Z,28.90
2023-05-19T21:55:07.349Z,28.90
2023-05-19T21:57:36.394Z,28.90
2023-05-19T22:00:07.648Z,28.80
2023-05-19T22:02:36.906Z,28.80
2023-05-19T22:05:06.083Z,28.80
2023-05-19T22:07:35.028Z,28.70
2023-05-19T22:10:04.062Z,28.70
2023-05-19T22:12:34.075Z,28.70
2023-05-19T22:15:04.036Z,28.70
2023-05-19T22:17:33.042Z,28.70
2023-05-19T22:20:02.347Z,28.60
2023-05-19T22:22:31.329Z,28.60
2023-05-19T22:25:00.647Z,28.60
2023-05-19T22:27:29.668Z,28.60
2023-05-19T22:30:00.805Z,28.50
2023-05-19T22:32:30.096Z,28.60
2023-05-19T22:34:59.144Z,28.50
2023-05-19T22:37:30.115Z,28.50
2023-05-19T22:39:59.114Z,28.50
2023-05-19T22:42:28.229Z,28.50
2023-05-19T22:44:57.390Z,28.50
2023-05-19T22:47:26.539Z,28.50
2023-05-19T22:49:57.017Z,28.40
2023-05-19T22:52:26.399Z,28.40
2023-05-19T22:54:55.709Z,28.40
2023-05-19T22:57:24.741Z,28.50
2023-05-19T22:59:53.764Z,28.40
2023-05-19T23:02:22.782Z,28.50
2023-05-19T23:04:51.774Z,28.40
2023-05-19T23:07:20.838Z,28.40
2023-05-19T23:09:49.856Z,28.50
2023-05-19T23:12:18.820Z,28.50
2023-05-19T23:14:48.313Z,28.50
2023-05-19T23:17:17.321Z,28.50
2023-05-19T23:19:46.306Z,28.50
2023-05-19T23:22:15.307Z,28.60
2023-05-19T23:24:44.393Z,28.60
2023-05-19T23:27:13.475Z,28.60
2023-05-19T23:29:42.525Z,28.70
2023-05-19T23:32:11.830Z,28.70
2023-05-19T23:34:40.852Z,28.80
2023-05-19T23:37:09.862Z,28.80
2023-05-19T23:39:39.473Z,28.90
2023-05-19T23:42:08.566Z,28.90
2023-05-19T23:44:37.761Z,29.00
2023-05-19T23:47:07.391Z,29.00
2023-05-19T23:49:36.964Z,29.10
2023-05-19T23:52:06.128Z,29.10
2023-05-19T23:54:35.119Z,29.20
2023-05-19T23:57:05.318Z,29.20
2023-05-19T23:59:34.432Z,29.20
